Time;durP1;ratioP1;P1;durP2;ratioP2;P2;SDS_P1;SDS_P2;PMS_P1;PMS_P2;Temp;Humidity;BMP_temperature;BMP_pressure;BME280_temperature;BME280_humidity;BME280_pressure;Samples;Min_cycle;Max_cycle;Signal;HPM_P1;HPM_P2
2021/06/12 00:02:10;;;;;;;5.63;3.73;;;;;;;17.13;77.58;94869.56;5095175;28;20458;-82
2021/06/12 00:04:36;;;;;;;4.27;3.97;;;;;;;17.14;77.68;94869.38;5113579;28;20507;-82
2021/06/12 00:07:05;;;;;;;6.33;3.53;;;;;;;17.12;78.18;94874.03;5114738;28;20477;-82
2021/06/12 00:09:31;;;;;;;8.70;3.77;;;;;;;17.10;78.02;94876.03;5117173;28;20790;-82
2021/06/12 00:11:59;;;;;;;9.47;4.73;;;;;;;17.09;77.63;94882.31;5117465;28;20439;-82
2021/06/12 00:31:16;;;;;;;4.60;4.20;;;;;;;16.76;78.68;94854.22;5115998;28;20425;-82
2021/06/12 00:33:42;;;;;;;5.43;4.93;;;;;;;16.76;78.59;94860.34;5117019;28;20817;-82
2021/06/12 00:36:10;;;;;;;4.23;3.83;;;;;;;16.76;78.42;94852.38;5116636;28;20437;-82
2021/06/12 00:38:37;;;;;;;9.27;4.70;;;;;;;16.78;78.35;94857.56;5116565;28;20969;-82
2021/06/12 00:41:03;;;;;;;4.70;4.30;;;;;;;16.79;78.48;94865.34;5117875;28;20463;-82
2021/06/12 00:43:30;;;;;;;4.90;4.37;;;;;;;16.80;78.58;94860.84;5117014;28;20454;-82
2021/06/12 00:45:56;;;;;;;5.67;4.60;;;;;;;16.80;78.36;94863.50;5081059;28;20517;-82
2021/06/12 00:48:27;;;;;;;4.83;4.30;;;;;;;16.80;78.86;94859.03;5116833;28;20815;-82
2021/06/12 00:50:54;;;;;;;5.77;4.87;;;;;;;16.79;78.75;94854.72;5116732;28;20439;-82
2021/06/12 00:53:36;;;;;;;5.23;4.00;;;;;;;16.80;78.49;94853.72;5080877;28;20471;-82
2021/06/12 00:56:03;;;;;;;6.87;5.10;;;;;;;16.77;78.67;94854.06;5116112;28;20466;-82
2021/06/12 00:58:31;;;;;;;4.93;4.37;;;;;;;16.77;78.65;94858.50;5116249;27;20798;-81
2021/06/12 01:00:58;;;;;;;5.20;4.80;;;;;;;16.76;78.57;94859.50;5116732;28;20801;-82
2021/06/12 01:03:28;;;;;;;5.17;4.67;;;;;;;16.73;79.16;94856.22;5116263;28;20430;-82
2021/06/12 01:05:55;;;;;;;7.53;5.30;;;;;;;16.80;79.08;94858.22;5116173;28;20527;-82
2021/06/12 01:08:22;;;;;;;8.90;4.60;;;;;;;16.79;79.24;94861.84;5116199;28;20495;-82
2021/06/12 01:10:48;;;;;;;4.47;4.17;;;;;;;16.80;78.49;94858.22;5116234;28;20927;-81
2021/06/12 01:13:25;;;;;;;7.20;4.73;;;;;;;16.81;79.07;94862.50;5116215;28;20797;-81
2021/06/12 01:15:58;;;;;;;5.90;4.83;;;;;;;16.75;79.01;94860.50;5080676;28;20438;-82
2021/06/12 01:18:32;;;;;;;7.90;4.50;;;;;;;16.76;79.22;94865.63;5116463;28;20484;-82
2021/06/12 01:21:07;;;;;;;6.43;4.83;;;;;;;16.76;79.23;94868.28;5116792;28;20429;-82
2021/06/12 01:24:13;;;;;;;4.53;4.17;;;;;;;16.72;79.86;94864.31;5115806;28;20426;-81
2021/06/12 01:27:08;;;;;;;5.07;4.43;;;;;;;16.68;79.54;94863.00;5116125;28;20488;-81
2021/06/12 01:30:06;;;;;;;5.63;4.40;;;;;;;16.65;79.69;94871.28;5115665;28;20911;-81
2021/06/12 01:32:38;;;;;;;5.63;5.00;;;;;;;16.66;79.95;94870.31;5115447;28;20446;-81
2021/06/12 01:35:07;;;;;;;5.00;4.60;;;;;;;16.66;79.51;94868.47;5115912;28;20450;-82
2021/06/12 01:37:37;;;;;;;4.33;4.03;;;;;;;16.66;79.72;94879.06;5116476;28;20443;-81
2021/06/12 01:40:06;;;;;;;4.93;4.43;;;;;;;16.69;79.75;94884.03;5115383;28;20459;-81
2021/06/12 01:42:35;;;;;;;6.53;4.23;;;;;;;16.69;80.08;94873.44;5115823;28;20447;-81
2021/06/12 01:45:03;;;;;;;6.60;4.47;;;;;;;16.63;79.11;94867.97;5115338;28;20439;-82
2021/06/12 01:47:31;;;;;;;5.33;4.83;;;;;;;16.62;79.50;94864.47;5115503;28;20912;-82
2021/06/12 01:50:01;;;;;;;4.20;3.90;;;;;;;16.66;79.38;94878.25;5096249;28;20480;-81
2021/06/12 01:52:29;;;;;;;4.57;4.17;;;;;;;16.64;79.59;94880.22;5115411;28;20448;-81
2021/06/12 01:54:57;;;;;;;8.40;3.97;;;;;;;16.63;79.32;94879.38;5114970;28;20916;-82
2021/06/12 01:57:25;;;;;;;4.93;4.47;;;;;;;16.66;79.07;94883.56;5115923;28;20430;-81
2021/06/12 01:59:55;;;;;;;4.63;4.23;;;;;;;16.64;79.49;94883.69;5115588;28;20443;-82
2021/06/12 02:02:22;;;;;;;5.13;4.63;;;;;;;16.65;79.08;94892.47;5115357;28;20435;-82
2021/06/12 02:04:50;;;;;;;4.83;4.53;;;;;;;16.66;79.15;94894.97;5117729;28;20446;-81
2021/06/12 02:07:20;;;;;;;4.60;4.20;;;;;;;16.65;79.34;94881.88;5114739;28;20474;-81
2021/06/12 02:09:51;;;;;;;4.80;4.40;;;;;;;16.64;79.54;94886.34;5115698;28;20909;-81
2021/06/12 02:12:19;;;;;;;5.27;3.97;;;;;;;16.61;79.29;94884.03;5115296;28;20458;-81
2021/06/12 02:14:46;;;;;;;4.67;4.27;;;;;;;16.58;79.92;94887.00;5115237;28;20435;-81
2021/06/12 02:17:17;;;;;;;5.00;4.60;;;;;;;16.60;79.91;94889.50;5114808;28;20447;-81
2021/06/12 02:19:43;;;;;;;4.60;4.30;;;;;;;16.58;80.23;94880.88;5115233;28;20443;-80
2021/06/12 02:22:10;;;;;;;4.97;4.53;;;;;;;16.55;80.26;94879.41;5114836;28;20452;-81
2021/06/12 02:24:38;;;;;;;8.13;4.20;;;;;;;16.53;79.89;94884.03;5116039;28;20422;-82
2021/06/12 02:27:08;;;;;;;4.60;4.20;;;;;;;16.52;80.69;94892.97;5115153;28;20466;-81
2021/06/12 02:29:36;;;;;;;5.33;4.87;;;;;;;16.55;80.03;94886.53;5115867;28;20773;-81
2021/06/12 02:32:06;;;;;;;8.00;3.90;;;;;;;16.56;80.21;94891.66;5116436;28;20488;-82
2021/06/12 02:34:33;;;;;;;4.90;4.50;;;;;;;16.56;80.04;94894.31;5123046;28;20797;-81
2021/06/12 02:37:04;;;;;;;4.90;4.40;;;;;;;16.54;79.99;94891.00;5119167;28;20944;-81
2021/06/12 02:39:31;;;;;;;4.57;4.17;;;;;;;16.47;79.86;94884.69;5076608;28;20437;-82
2021/06/12 02:42:00;;;;;;;4.33;3.83;;;;;;;16.46;79.97;94888.31;5076507;28;20467;-82
2021/06/12 02:44:26;;;;;;;5.27;4.87;;;;;;;16.42;80.44;94890.47;5076157;28;20457;-81
2021/06/12 02:46:57;;;;;;;7.73;4.10;;;;;;;16.41;80.59;94895.94;5042268;28;20483;-81
2021/06/12 02:49:27;;;;;;;7.83;4.53;;;;;;;16.40;80.23;94889.81;5040312;28;20475;-81
2021/06/12 02:51:59;;;;;;;5.57;4.50;;;;;;;16.39;80.20;94887.34;5072645;28;20425;-81
2021/06/12 02:54:26;;;;;;;9.17;4.77;;;;;;;16.38;80.66;94894.44;5072734;28;20448;-81
2021/06/12 02:56:57;;;;;;;6.10;5.30;;;;;;;16.34;80.97;94894.94;5072178;28;20477;-81
2021/06/12 02:59:28;;;;;;;6.03;5.20;;;;;;;16.34;80.91;94889.66;5072561;28;20460;-81
2021/06/12 03:01:56;;;;;;;5.73;4.40;;;;;;;16.30;81.28;94896.28;5074399;28;20423;-81
2021/06/12 03:04:23;;;;;;;4.13;3.80;;;;;;;16.29;81.14;94891.97;5084498;28;20443;-81
2021/06/12 03:06:51;;;;;;;4.93;4.00;;;;;;;16.29;81.77;94895.44;5085660;28;20474;-81
2021/06/12 03:09:21;;;;;;;5.70;5.07;;;;;;;16.20;81.92;94900.91;5084560;28;20448;-81
2021/06/12 03:11:50;;;;;;;4.20;3.90;;;;;;;16.21;81.86;94895.47;5127094;28;20599;-81
2021/06/12 03:14:18;;;;;;;4.83;4.43;;;;;;;16.18;82.08;94895.75;5126664;28;20434;-81
2021/06/12 03:16:48;;;;;;;4.70;4.30;;;;;;;16.19;82.50;94886.84;5122114;28;20452;-82
2021/06/12 03:19:16;;;;;;;5.93;4.60;;;;;;;16.20;82.38;94893.81;5114169;28;20425;-81
2021/06/12 03:21:44;;;;;;;5.50;3.93;;;;;;;16.24;82.12;94889.81;5114098;28;20942;-81
2021/06/12 03:24:12;;;;;;;6.60;4.17;;;;;;;16.25;82.29;94898.59;5114011;28;20919;-81
2021/06/12 03:26:39;;;;;;;8.10;4.50;;;;;;;16.28;81.58;94892.97;5095678;28;20898;-81
2021/06/12 03:29:07;;;;;;;4.80;4.40;;;;;;;16.32;82.16;94902.25;5114509;28;20469;-81
2021/06/12 03:31:34;;;;;;;8.17;5.37;;;;;;;16.38;82.12;94902.41;5114225;28;20450;-80
2021/06/12 03:34:02;;;;;;;5.00;4.60;;;;;;;16.38;81.72;94902.41;5114467;28;20940;-81
2021/06/12 03:36:29;;;;;;;7.23;4.30;;;;;;;16.42;81.47;94906.38;5078637;28;20435;-81
2021/06/12 03:38:56;;;;;;;5.03;4.27;;;;;;;16.43;80.73;94913.31;5095268;28;20438;-81
2021/06/12 03:41:24;;;;;;;5.20;4.70;;;;;;;16.43;80.61;94913.31;5114585;28;20528;-81
2021/06/12 03:43:51;;;;;;;4.77;4.37;;;;;;;16.41;81.10;94896.78;5118846;28;20472;-81
2021/06/12 03:46:19;;;;;;;5.00;4.60;;;;;;;16.46;81.16;94909.50;5118093;28;20967;-81
2021/06/12 03:48:48;;;;;;;6.10;4.90;;;;;;;16.46;80.86;94913.97;5099385;28;20466;-81
2021/06/12 03:51:17;;;;;;;4.77;4.37;;;;;;;16.54;81.20;94916.66;5117996;28;20439;-81
2021/06/12 03:53:46;;;;;;;6.53;4.57;;;;;;;16.59;80.65;94919.63;5117895;28;20430;-81
2021/06/12 03:56:14;;;;;;;6.83;4.27;;;;;;;16.63;81.02;94916.47;5118055;28;20445;-81
2021/06/12 03:58:43;;;;;;;4.77;4.37;;;;;;;16.71;80.49;94929.75;5117217;28;20441;-81
2021/06/12 04:01:12;;;;;;;4.73;4.23;;;;;;;16.77;80.58;94922.13;5115781;28;20531;-81
2021/06/12 04:03:39;;;;;;;7.03;5.10;;;;;;;16.82;80.55;94925.13;5118246;28;20438;-81
2021/06/12 04:06:07;;;;;;;5.80;5.30;;;;;;;16.34;83.92;94927.56;5117309;28;20481;-81
2021/06/12 04:08:35;;;;;;;7.17;4.60;;;;;;;16.24;84.64;94928.72;5117441;28;20435;-81
2021/06/12 04:11:01;;;;;;;7.07;5.70;;;;;;;16.09;85.24;94932.00;5118672;28;20446;-81
2021/06/12 04:13:28;;;;;;;6.77;5.57;;;;;;;15.88;86.71;94928.94;5118051;28;20433;-81
2021/06/12 04:15:54;;;;;;;8.00;5.73;;;;;;;15.80;87.70;94927.13;5117428;28;20442;-81
2021/06/12 04:18:21;;;;;;;5.90;5.40;;;;;;;15.77;88.90;94929.25;5117633;28;20440;-81
2021/06/12 04:20:48;;;;;;;6.27;5.33;;;;;;;15.91;88.42;94936.59;5117576;28;20463;-81
2021/06/12 04:23:15;;;;;;;5.83;4.80;;;;;;;15.98;88.73;94934.13;5117551;28;20432;-81
2021/06/12 04:25:43;;;;;;;7.83;5.97;;;;;;;15.95;89.20;94935.28;5117097;28;20454;-81
2021/06/12 04:28:10;;;;;;;8.17;6.57;;;;;;;16.01;88.37;94944.38;5117530;28;20436;-81
2021/06/12 04:30:37;;;;;;;10.13;5.60;;;;;;;16.05;88.02;94940.44;5117112;28;20859;-81
2021/06/12 04:33:04;;;;;;;8.80;5.50;;;;;;;16.08;88.40;94938.28;5116942;28;20445;-81
2021/06/12 04:35:32;;;;;;;7.23;5.43;;;;;;;16.25;88.52;94927.72;5116474;28;20425;-81
2021/06/12 04:41:21;;;;;;;6.30;5.27;;;;;;;16.57;87.10;94930.41;5116039;28;20540;-80
2021/06/12 04:43:48;;;;;;;7.07;6.00;;;;;;;16.67;86.14;94930.25;5116784;28;20448;-81
2021/06/12 04:46:14;;;;;;;7.50;5.43;;;;;;;16.75;86.17;94929.41;5116515;28;20516;-81
2021/06/12 04:48:41;;;;;;;6.60;6.00;;;;;;;16.87;86.08;94938.69;5116577;28;20496;-81
2021/06/12 04:51:08;;;;;;;9.10;6.30;;;;;;;16.99;85.87;94942.63;5116471;28;20795;-81
2021/06/12 04:53:34;;;;;;;8.80;6.40;;;;;;;17.10;84.74;94944.13;5115789;28;20434;-81
2021/06/12 04:56:01;;;;;;;7.70;7.00;;;;;;;17.10;84.73;94939.66;5116132;28;20469;-81
2021/06/12 04:58:29;;;;;;;7.77;6.97;;;;;;;17.18;84.53;94947.59;5116541;28;20435;-81
2021/06/12 05:00:55;;;;;;;11.23;6.80;;;;;;;17.20;84.34;94944.78;5116504;28;20436;-81
2021/06/12 05:03:22;;;;;;;10.03;6.47;;;;;;;17.24;84.09;94956.69;5116605;28;20872;-81
2021/06/12 05:06:08;;;;;;;10.07;6.00;;;;;;;17.24;83.81;94949.56;5116089;28;20511;-81
2021/06/12 05:08:34;;;;;;;7.30;6.60;;;;;;;17.30;84.37;94956.00;5080624;28;20581;-81
2021/06/12 05:11:01;;;;;;;8.60;6.70;;;;;;;17.28;84.51;94947.41;5116273;28;20437;-81
2021/06/12 05:13:31;;;;;;;11.07;6.37;;;;;;;17.39;85.00;94951.53;5115803;28;20443;-81
2021/06/12 05:15:58;;;;;;;12.10;7.63;;;;;;;17.36;84.47;94949.22;5115873;28;20479;-81
2021/06/12 05:18:31;;;;;;;8.10;7.37;;;;;;;17.45;85.57;94958.81;5116196;28;20431;-80
2021/06/12 05:20:58;;;;;;;9.83;7.10;;;;;;;17.57;85.35;94955.59;5115885;28;20435;-81
2021/06/12 05:23:24;;;;;;;11.00;6.90;;;;;;;17.61;84.27;94958.72;5115761;28;20528;-81
2021/06/12 05:25:51;;;;;;;8.60;7.77;;;;;;;17.69;83.28;94961.41;5115929;28;20868;-81
2021/06/12 05:28:17;;;;;;;7.10;6.40;;;;;;;17.65;83.38;94960.91;5115830;28;20431;-81
2021/06/12 05:30:45;;;;;;;7.40;6.50;;;;;;;17.70;84.00;94962.25;5116146;28;20809;-81
2021/06/12 05:33:12;;;;;;;7.13;6.40;;;;;;;17.82;84.22;94972.28;5115968;28;20446;-81
2021/06/12 05:35:38;;;;;;;8.20;5.97;;;;;;;17.97;83.01;94969.75;5115981;28;20431;-81
2021/06/12 05:38:05;;;;;;;8.40;6.83;;;;;;;18.15;81.95;94970.31;5115955;28;20481;-81
2021/06/12 05:40:32;;;;;;;8.03;7.03;;;;;;;18.27;81.69;94981.38;5115940;28;20443;-81
2021/06/12 05:42:58;;;;;;;11.70;6.03;;;;;;;18.24;82.78;94976.41;5115687;28;20458;-81
2021/06/12 05:45:25;;;;;;;8.40;7.60;;;;;;;18.36;81.49;94975.00;5115880;28;20460;-81
2021/06/12 05:47:53;;;;;;;9.83;7.20;;;;;;;18.53;81.18;94979.22;5115034;28;20476;-81
2021/06/12 05:50:21;;;;;;;8.10;6.27;;;;;;;18.56;80.86;94981.53;5115525;28;20435;-81
2021/06/12 05:52:47;;;;;;;9.73;7.13;;;;;;;18.44;80.08;94977.59;5115192;28;20529;-81
2021/06/12 05:55:14;;;;;;;9.87;7.67;;;;;;;18.64;79.67;94982.50;5115861;28;20440;-81
2021/06/12 05:57:40;;;;;;;11.53;7.07;;;;;;;18.84;79.27;94975.72;5115409;28;20440;-81
2021/06/12 06:00:09;;;;;;;11.87;8.17;;;;;;;19.02;77.84;94970.88;5115141;27;20433;-81
2021/06/12 06:02:36;;;;;;;8.73;7.10;;;;;;;19.21;77.26;94979.38;5113470;28;20480;-81
2021/06/12 06:05:05;;;;;;;14.50;7.43;;;;;;;19.40;76.09;94974.38;5114330;28;20467;-81
2021/06/12 06:07:31;;;;;;;13.17;8.60;;;;;;;19.60;75.37;94968.50;5115623;28;21003;-81
2021/06/12 06:09:58;;;;;;;12.63;7.33;;;;;;;19.72;73.85;94978.53;5115130;28;20443;-81
2021/06/12 06:12:25;;;;;;;11.20;7.20;;;;;;;19.79;72.35;94976.78;5115455;28;20486;-81
2021/06/12 06:14:51;;;;;;;8.97;7.40;;;;;;;19.88;72.23;94971.34;5114914;28;20944;-81
2021/06/12 06:17:18;;;;;;;10.03;7.73;;;;;;;20.03;72.99;94967.69;5115171;28;20914;-81
2021/06/12 06:19:44;;;;;;;14.80;7.70;;;;;;;20.16;72.73;94971.50;5115062;28;20470;-81
2021/06/12 06:22:12;;;;;;;11.43;7.13;;;;;;;20.30;71.89;94963.50;5115647;28;20917;-81
2021/06/12 06:24:39;;;;;;;11.23;6.90;;;;;;;20.44;70.70;94966.31;5079311;28;20447;-81
2021/06/12 06:27:06;;;;;;;15.33;8.00;;;;;;;20.65;70.13;94969.84;5115016;28;20538;-81
2021/06/12 06:29:33;;;;;;;10.17;7.60;;;;;;;20.89;68.60;94965.16;5114579;28;20440;-81
2021/06/12 06:31:59;;;;;;;7.63;6.90;;;;;;;21.24;67.78;94961.56;5114505;28;20419;-81
2021/06/12 06:34:26;;;;;;;11.47;7.53;;;;;;;21.68;64.53;94955.06;5114690;28;20514;-81
2021/06/12 06:36:53;;;;;;;8.90;7.23;;;;;;;22.01;63.59;94957.94;5114337;28;20448;-81
2021/06/12 06:39:21;;;;;;;14.57;8.57;;;;;;;;;;5114812;28;20917;-81
2021/06/12 06:41:47;;;;;;;10.63;8.00;;;;;;;22.62;59.59;94960.66;5115128;28;20851;-81
2021/06/12 06:44:14;;;;;;;7.93;7.23;;;;;;;22.93;59.60;94959.28;5114822;28;20447;-81
2021/06/12 06:46:41;;;;;;;8.40;6.87;;;;;;;23.30;59.12;94949.81;5114327;28;20530;-81
2021/06/12 06:49:07;;;;;;;15.07;6.87;;;;;;;23.51;58.94;94952.28;5115042;28;20484;-82
2021/06/12 06:51:34;;;;;;;12.83;6.30;;;;;;;23.85;56.19;94945.84;5114690;28;20477;-83
2021/06/12 06:54:00;;;;;;;6.40;5.90;;;;;;;24.16;54.54;94952.34;5078935;28;20535;-82
2021/06/12 06:56:28;;;;;;;6.60;6.10;;;;;;;24.48;52.40;94940.66;5114454;28;20521;-82
2021/06/12 06:58:54;;;;;;;6.60;5.90;;;;;;;24.82;51.56;94944.78;5114136;28;20778;-83
2021/06/12 07:01:21;;;;;;;12.33;7.60;;;;;;;24.91;54.58;94937.31;5079113;28;20833;-82
2021/06/12 07:03:47;;;;;;;7.00;6.50;;;;;;;25.02;50.69;94937.47;5114087;28;20451;-82
2021/06/12 07:06:14;;;;;;;6.50;6.00;;;;;;;24.78;51.51;94942.75;5114686;28;20517;-82
2021/06/12 07:08:41;;;;;;;7.00;6.30;;;;;;;24.93;50.22;94935.22;5114207;28;20437;-82
2021/06/12 07:11:07;;;;;;;6.30;5.80;;;;;;;24.87;51.00;94934.25;5114683;28;20421;-82
2021/06/12 07:13:35;;;;;;;6.63;5.93;;;;;;;24.93;49.74;94932.56;5114358;28;20456;-82
2021/06/12 07:16:02;;;;;;;5.93;5.53;;;;;;;24.52;49.95;94947.25;5080233;28;20444;-82
2021/06/12 07:18:29;;;;;;;6.67;6.00;;;;;;;24.39;50.28;94937.41;5119062;28;20804;-82
2021/06/12 07:20:56;;;;;;;6.13;5.60;;;;;;;24.68;51.08;94930.66;5118360;28;20452;-82
2021/06/12 07:23:23;;;;;;;5.97;5.47;;;;;;;24.73;50.36;94935.34;5118475;28;20448;-82
2021/06/12 07:25:50;;;;;;;7.10;6.50;;;;;;;24.68;50.77;94930.66;5118232;28;20432;-82
2021/06/12 07:28:16;;;;;;;7.53;5.97;;;;;;;24.91;51.37;94930.09;5118107;28;20477;-82
2021/06/12 07:30:45;;;;;;;6.23;5.73;;;;;;;25.07;51.35;94930.59;5118592;28;20490;-82
2021/06/12 07:33:13;;;;;;;7.90;6.97;;;;;;;25.27;50.28;94936.66;5116320;28;20472;-82
2021/06/12 07:35:41;;;;;;;7.20;5.83;;;;;;;25.63;50.50;94928.66;5117933;28;20430;-82
2021/06/12 07:38:08;;;;;;;6.43;5.83;;;;;;;25.94;47.97;94916.97;5118240;28;20430;-82
2021/06/12 07:40:36;;;;;;;6.83;5.50;;;;;;;26.00;47.56;94920.63;5117719;28;20934;-82
2021/06/12 07:43:03;;;;;;;8.20;6.93;;;;;;;26.03;48.86;94912.13;5118023;28;20534;-82
2021/06/12 07:45:30;;;;;;;6.97;6.33;;;;;;;25.98;48.87;94911.16;5117558;28;20426;-82
2021/06/12 07:47:58;;;;;;;8.50;6.03;;;;;;;25.99;47.39;94913.59;5117800;28;20481;-82
2021/06/12 07:50:25;;;;;;;8.00;5.63;;;;;;;26.15;48.47;94912.19;5116328;28;20443;-81
2021/06/12 07:52:52;;;;;;;7.03;6.27;;;;;;;26.08;46.99;94911.47;5117301;28;20898;-81
2021/06/12 07:55:19;;;;;;;7.43;6.50;;;;;;;26.17;46.90;94912.78;5118393;28;20496;-82
2021/06/12 07:57:45;;;;;;;6.40;5.90;;;;;;;26.39;47.76;94908.59;5082022;28;20449;-82
2021/06/12 08:00:13;;;;;;;6.63;6.00;;;;;;;26.54;46.77;94913.56;5117452;28;20488;-82
2021/06/12 08:02:40;;;;;;;6.53;6.03;;;;;;;26.71;47.12;94911.06;5082765;28;20435;-82
2021/06/12 08:05:09;;;;;;;6.83;6.23;;;;;;;26.36;46.00;94908.25;5117109;28;20427;-82
2021/06/12 08:07:35;;;;;;;6.83;6.23;;;;;;;25.91;47.24;94914.75;5117176;28;20459;-82
2021/06/12 08:10:03;;;;;;;6.77;6.27;;;;;;;25.94;47.60;94905.41;5098432;28;20457;-82
2021/06/12 08:12:30;;;;;;;6.87;6.27;;;;;;;25.74;47.15;94905.63;5117573;28;20428;-82
2021/06/12 08:14:57;;;;;;;6.40;5.90;;;;;;;25.81;46.94;94906.38;5117178;28;20454;-82
2021/06/12 08:17:23;;;;;;;9.00;6.30;;;;;;;25.85;48.72;94896.00;5117386;28;20416;-82
2021/06/12 08:19:50;;;;;;;8.33;6.87;;;;;;;26.02;48.14;94898.88;5116980;28;20438;-80
2021/06/12 08:22:18;;;;;;;7.40;6.53;;;;;;;26.08;47.29;94898.00;5116942;28;20469;-82
2021/06/12 08:24:45;;;;;;;12.25;6.80;;;;;;;26.05;47.29;94901.97;5116966;28;20431;-82
2021/06/12 08:27:12;;;;;;;7.70;6.93;;;;;;;25.50;48.58;94895.72;5118522;28;20262;-81
2021/06/12 08:29:38;;;;;;;8.13;7.47;;;;;;;24.76;49.70;94891.97;5118681;28;20509;-80
2021/06/12 08:32:07;;;;;;;7.30;6.60;;;;;;;25.03;51.49;94892.63;5116657;27;20434;-82
2021/06/12 08:34:33;;;;;;;6.93;6.10;;;;;;;25.29;48.71;94895.09;5099269;28;20442;-82
2021/06/12 08:37:02;;;;;;;6.70;6.10;;;;;;;25.32;49.39;94893.81;5119021;28;20434;-82
2021/06/12 08:39:30;;;;;;;6.57;6.07;;;;;;;25.51;48.29;94886.63;5120384;28;20442;-82
2021/06/12 08:41:58;;;;;;;7.13;6.53;;;;;;;25.64;48.17;94894.53;5120423;28;20454;-80
2021/06/12 08:44:26;;;;;;;11.10;7.10;;;;;;;25.77;47.64;94897.13;5120797;28;20451;-81
2021/06/12 08:46:53;;;;;;;7.10;6.37;;;;;;;25.48;48.34;94885.22;5119558;28;20482;-80
2021/06/12 08:49:20;;;;;;;6.30;5.70;;;;;;;25.02;47.68;94880.25;5118580;28;20473;-82
2021/06/12 08:51:48;;;;;;;6.60;5.83;;;;;;;24.68;47.63;94879.66;5081276;28;20462;-81
2021/06/12 08:54:16;;;;;;;6.50;6.00;;;;;;;24.46;49.29;94885.56;5116960;28;20958;-82
2021/06/12 08:56:46;;;;;;;6.83;6.07;;;;;;;24.49;49.38;94885.13;5117517;28;20442;-82
2021/06/12 08:59:13;;;;;;;5.87;5.40;;;;;;;24.68;48.74;94879.66;5117044;28;20468;-82
2021/06/12 09:01:40;;;;;;;6.70;6.10;;;;;;;24.81;48.69;94875.22;5117577;28;20483;-82
2021/06/12 09:04:07;;;;;;;5.47;5.07;;;;;;;24.74;47.17;94877.97;5116522;28;20446;-82
2021/06/12 09:06:34;;;;;;;5.47;5.07;;;;;;;24.58;47.44;94870.44;5116420;28;20444;-82
2021/06/12 09:09:00;;;;;;;4.77;4.47;;;;;;;24.69;47.17;94865.19;5117515;28;20448;-81
2021/06/12 09:11:32;;;;;;;5.17;4.70;;;;;;;24.86;45.92;94861.94;5097822;28;20441;-81
2021/06/12 09:14:01;;;;;;;6.50;6.00;;;;;;;24.87;45.18;94855.56;5117337;28;20445;-81
2021/06/12 09:16:32;;;;;;;5.30;4.77;;;;;;;24.97;46.13;94862.09;5116717;28;20918;-81
2021/06/12 09:19:05;;;;;;;4.67;4.30;;;;;;;25.05;44.22;94854.81;5116798;28;20437;-81
2021/06/12 09:21:34;;;;;;;5.20;4.70;;;;;;;25.09;43.64;94858.69;5080770;28;20527;-80
2021/06/12 09:24:02;;;;;;;6.70;4.57;;;;;;;24.89;44.50;94857.00;5116610;28;20450;-82
2021/06/12 09:26:45;;;;;;;5.97;4.80;;;;;;;25.08;44.80;94859.75;5116975;28;20469;-81
2021/06/12 09:29:17;;;;;;;5.43;5.03;;;;;;;25.24;45.45;94851.97;5116001;28;20434;-82
2021/06/12 09:31:47;;;;;;;7.17;5.07;;;;;;;25.49;44.75;94857.28;5116211;28;20411;-81
2021/06/12 09:34:15;;;;;;;7.90;4.90;;;;;;;25.34;45.65;94867.56;5116426;28;20465;-81
2021/06/12 09:36:43;;;;;;;4.60;4.20;;;;;;;25.02;44.25;94858.75;5116523;28;20927;-82
2021/06/12 09:39:14;;;;;;;4.93;4.57;;;;;;;24.58;44.51;94860.53;5116348;27;20912;-81
2021/06/12 09:41:45;;;;;;;5.90;4.90;;;;;;;24.60;45.62;94858.47;5116692;28;20515;-82
2021/06/12 09:44:30;;;;;;;5.10;4.60;;;;;;;24.68;46.93;94849.31;5116495;28;20492;-82
2021/06/12 09:46:57;;;;;;;4.97;4.47;;;;;;;24.82;45.70;94839.28;5117117;28;20477;-81
2021/06/12 09:49:31;;;;;;;5.30;4.90;;;;;;;24.98;45.94;94836.91;5116914;28;20530;-82
2021/06/12 09:52:04;;;;;;;6.13;4.63;;;;;;;25.06;44.97;94832.28;5116068;28;20490;-81
2021/06/12 09:54:44;;;;;;;4.13;3.73;;;;;;;25.08;44.89;94838.25;5115949;28;20503;-82
2021/06/12 09:57:13;;;;;;;4.90;4.60;;;;;;;25.00;44.34;94834.00;5116151;28;20441;-81
2021/06/12 09:59:44;;;;;;;5.23;3.93;;;;;;;25.09;44.42;94827.28;5115917;28;20427;-82
2021/06/12 10:02:12;;;;;;;5.27;4.33;;;;;;;25.10;45.35;94823.56;5115558;28;20454;-81
2021/06/12 10:04:55;;;;;;;4.93;4.53;;;;;;;24.93;44.57;94822.47;5115991;28;21014;-81
2021/06/12 10:07:22;;;;;;;4.87;4.40;;;;;;;24.85;46.14;94828.09;5116466;28;21018;-83
2021/06/12 10:09:51;;;;;;;7.83;5.27;;;;;;;24.92;46.63;94821.66;5118296;28;20511;-82
2021/06/12 10:12:18;;;;;;;5.30;4.80;;;;;;;24.94;46.70;94826.81;5117374;28;20810;-81
2021/06/12 10:14:47;;;;;;;5.40;5.00;;;;;;;25.00;45.94;94825.94;5116998;28;20452;-82
2021/06/12 10:17:14;;;;;;;5.10;4.27;;;;;;;24.96;46.10;94819.34;5116944;28;20535;-81
2021/06/12 10:19:43;;;;;;;7.03;5.17;;;;;;;24.94;46.05;94811.50;5117991;28;20451;-82
2021/06/12 10:22:10;;;;;;;5.73;4.77;;;;;;;25.11;47.42;94808.28;5118573;28;20453;-78
2021/06/12 10:24:38;;;;;;;5.50;5.00;;;;;;;25.26;45.42;94812.25;5119364;28;20439;-81
2021/06/12 10:27:06;;;;;;;5.37;4.60;;;;;;;25.26;45.22;94806.88;5120243;28;20469;-82
2021/06/12 10:29:34;;;;;;;5.30;4.90;;;;;;;25.28;44.72;94810.16;5119834;28;20454;-81
2021/06/12 10:32:05;;;;;;;5.90;4.40;;;;;;;25.13;46.38;94798.13;5119676;28;20442;-80
2021/06/12 10:34:33;;;;;;;4.50;4.20;;;;;;;24.96;46.14;94804.06;5120798;28;20458;-82
2021/06/12 10:37:03;;;;;;;5.37;4.97;;;;;;;25.01;46.88;94806.94;5121145;28;20451;-80
2021/06/12 10:39:33;;;;;;;5.83;5.20;;;;;;;24.88;46.88;94801.66;5119866;28;20446;-81
2021/06/12 10:42:14;;;;;;;14.83;6.20;;;;;;;24.85;47.66;94812.81;5120242;28;20449;-81
2021/06/12 10:44:42;;;;;;;5.77;5.27;;;;;;;24.65;48.09;94810.31;5118892;28;20430;-82
2021/06/12 10:47:10;;;;;;;7.93;4.93;;;;;;;24.76;49.61;94807.94;5118302;28;20488;-81
2021/06/12 10:49:37;;;;;;;4.80;4.07;;;;;;;24.78;45.85;94803.19;5117318;28;20564;-82
2021/06/12 10:52:05;;;;;;;5.40;4.90;;;;;;;24.69;49.66;94795.41;5116635;28;20449;-81
2021/06/12 10:54:35;;;;;;;5.17;4.77;;;;;;;24.59;48.88;94810.38;5098486;28;20486;-82
2021/06/12 10:57:05;;;;;;;5.30;4.30;;;;;;;24.34;48.10;94810.34;5117306;28;20457;-79
2021/06/12 10:59:47;;;;;;;4.53;4.00;;;;;;;24.04;48.02;94810.91;5119163;28;20443;-79
2021/06/12 11:02:22;;;;;;;5.73;3.90;;;;;;;23.68;48.65;94816.84;5056373;28;20442;-79
2021/06/12 11:04:55;;;;;;;4.40;3.40;;;;;;;23.45;47.98;94821.88;5055047;28;20450;-81
2021/06/12 11:07:41;;;;;;;4.77;4.37;;;;;;;23.16;52.73;94813.28;5055920;28;20482;-80
2021/06/12 11:10:25;;;;;;;11.07;4.40;;;;;;;22.85;57.71;94826.50;5053692;28;20947;-80
2021/06/12 11:12:53;;;;;;;6.00;4.10;;;;;;;22.44;63.81;94826.66;5023519;28;21010;-82
2021/06/12 11:15:30;;;;;;;12.57;8.30;;;;;;;21.32;67.76;94819.94;5023004;28;20448;-79
2021/06/12 11:18:17;;;;;;;14.77;10.00;;;;;;;21.06;70.06;94822.41;5056906;28;20443;-80
2021/06/12 11:20:47;;;;;;;9.00;5.93;;;;;;;20.51;71.77;94813.41;5055886;28;20455;-81
2021/06/12 11:23:16;;;;;;;9.43;4.77;;;;;;;20.40;73.96;94811.28;5057296;28;20496;-81
2021/06/12 11:25:46;;;;;;;4.70;4.30;;;;;;;20.46;73.11;94817.69;5058242;28;20954;-80
2021/06/12 11:28:25;;;;;;;7.37;4.47;;;;;;;20.38;69.81;94818.63;5057653;28;20481;-82
2021/06/12 11:30:55;;;;;;;6.07;3.13;;;;;;;20.21;70.17;94811.88;5056922;28;20472;-81
2021/06/12 11:33:23;;;;;;;4.10;3.80;;;;;;;20.18;70.32;94804.28;5056614;28;20438;-81
2021/06/12 11:35:53;;;;;;;4.13;3.70;;;;;;;20.40;69.99;94798.78;5057668;28;20878;-82
2021/06/12 11:38:21;;;;;;;4.13;3.73;;;;;;;20.71;70.94;94802.91;5057402;28;20434;-81
2021/06/12 11:40:54;;;;;;;3.60;3.30;;;;;;;20.81;70.54;94798.03;5115210;28;20451;-82
2021/06/12 11:43:32;;;;;;;3.43;3.23;;;;;;;20.99;65.81;94793.03;5114963;28;20780;-81
2021/06/12 11:46:00;;;;;;;3.77;3.37;;;;;;;21.30;66.41;94792.63;5114807;28;20478;-81
2021/06/12 11:48:28;;;;;;;3.97;3.57;;;;;;;21.57;68.97;94790.06;5114530;28;20501;-82
2021/06/12 11:50:56;;;;;;;3.50;3.20;;;;;;;21.53;66.18;94776.28;5114941;28;20911;-82
2021/06/12 11:53:33;;;;;;;4.67;4.27;;;;;;;21.57;66.14;94774.88;5114645;28;20477;-82
2021/06/12 11:56:00;;;;;;;4.60;4.20;;;;;;;21.53;63.50;94780.81;5114890;28;20436;-81
2021/06/12 11:58:27;;;;;;;5.00;3.53;;;;;;;21.46;61.09;94775.44;5116412;28;20435;-82
2021/06/12 12:00:54;;;;;;;4.37;3.97;;;;;;;21.67;63.24;94779.00;5117567;28;20442;-81
2021/06/12 12:03:20;;;;;;;6.77;4.40;;;;;;;21.85;63.14;94768.56;5116716;28;20445;-83